Canyon Country, California
Current Conditions -  °F | °C
As of 9:51 AM on Monday 26 Jan 2015 (Local Time) from KVNY Reporting Station
Overcast Overcast  
Wind Chill: 66°   Ceiling: 11000
Heat Index: 66°   Visibility: 10mi
Dew Point: 45°   Wind: 3mph
Humidity: 47%   Direction: 170°S
Pressure: 30.03"   Gusts: NA
Location:  34.42°N, 118.45°W
Report Text: KVNY 261751Z 17003KT 10SM OVC110 19/07 A3003 RMK AO2 SLP163 T01890072 10194 20139 53007
Loading
Personal Weather Stations






























Interactive Weather Map New forecast layout! Learn more

10-Day Weather Forecast

Advertisements
Track Severe Weather on mobile